sensor_id;sensor_type;location;lat;lon;timestamp;temperature;humidity
15131;DHT22;7666;50.920;4.628;2023-01-28T00:02:39;4.30;99.90
15131;DHT22;7666;50.920;4.628;2023-01-28T00:05:25;4.30;99.90
15131;DHT22;7666;50.920;4.628;2023-01-28T00:08:11;4.30;99.90
15131;DHT22;7666;50.920;4.628;2023-01-28T00:11:03;4.30;99.90
15131;DHT22;7666;50.920;4.628;2023-01-28T00:13:53;4.40;99.90
15131;DHT22;7666;50.920;4.628;2023-01-28T00:16:39;4.40;99.90
15131;DHT22;7666;50.920;4.628;2023-01-28T00:19:26;4.40;99.90
15131;DHT22;7666;50.920;4.628;2023-01-28T00:22:12;4.30;99.90
15131;DHT22;7666;50.920;4.628;2023-01-28T00:24:58;4.40;99.90
15131;DHT22;7666;50.920;4.628;2023-01-28T00:27:44;4.40;99.90
15131;DHT22;7666;50.920;4.628;2023-01-28T00:30:30;4.40;99.90
15131;DHT22;7666;50.920;4.628;2023-01-28T00:33:16;4.40;99.90
15131;DHT22;7666;50.920;4.628;2023-01-28T00:36:03;4.40;99.90
15131;DHT22;7666;50.920;4.628;2023-01-28T00:38:55;4.40;99.90
15131;DHT22;7666;50.920;4.628;2023-01-28T00:41:41;4.30;99.90
15131;DHT22;7666;50.920;4.628;2023-01-28T00:44:27;4.30;99.90
15131;DHT22;7666;50.920;4.628;2023-01-28T00:47:13;4.30;99.90
15131;DHT22;7666;50.920;4.628;2023-01-28T00:49:59;4.30;99.90
15131;DHT22;7666;50.920;4.628;2023-01-28T00:52:46;4.30;99.90
15131;DHT22;7666;50.920;4.628;2023-01-28T00:55:32;4.30;99.90
15131;DHT22;7666;50.920;4.628;2023-01-28T00:58:18;4.20;99.90
15131;DHT22;7666;50.920;4.628;2023-01-28T01:01:09;4.20;99.90
15131;DHT22;7666;50.920;4.628;2023-01-28T01:03:55;4.20;99.90
15131;DHT22;7666;50.920;4.628;2023-01-28T01:06:47;4.20;99.90
15131;DHT22;7666;50.920;4.628;2023-01-28T01:09:33;4.20;99.90
15131;DHT22;7666;50.920;4.628;2023-01-28T01:12:19;4.20;99.90
15131;DHT22;7666;50.920;4.628;2023-01-28T01:15:06;4.20;99.90
15131;DHT22;7666;50.920;4.628;2023-01-28T01:17:56;4.20;99.90
15131;DHT22;7666;50.920;4.628;2023-01-28T01:20:42;4.10;99.90
15131;DHT22;7666;50.920;4.628;2023-01-28T01:23:30;4.10;99.90
15131;DHT22;7666;50.920;4.628;2023-01-28T01:26:16;4.10;99.90
15131;DHT22;7666;50.920;4.628;2023-01-28T01:29:02;4.10;99.90
15131;DHT22;7666;50.920;4.628;2023-01-28T01:31:48;4.10;99.90
15131;DHT22;7666;50.920;4.628;2023-01-28T01:34:34;4.10;99.90
15131;DHT22;7666;50.920;4.628;2023-01-28T01:37:20;4.10;99.90
15131;DHT22;7666;50.920;4.628;2023-01-28T01:40:07;4.10;99.90
15131;DHT22;7666;50.920;4.628;2023-01-28T01:42:54;4.10;99.90
15131;DHT22;7666;50.920;4.628;2023-01-28T01:45:40;4.00;99.90
15131;DHT22;7666;50.920;4.628;2023-01-28T01:48:30;4.00;99.90
15131;DHT22;7666;50.920;4.628;2023-01-28T01:51:21;4.00;99.90
15131;DHT22;7666;50.920;4.628;2023-01-28T01:54:08;4.00;99.90
15131;DHT22;7666;50.920;4.628;2023-01-28T01:56:55;4.00;99.90
15131;DHT22;7666;50.920;4.628;2023-01-28T01:59:41;4.00;99.90
15131;DHT22;7666;50.920;4.628;2023-01-28T02:02:28;4.00;99.90
15131;DHT22;7666;50.920;4.628;2023-01-28T02:05:17;4.00;99.90
15131;DHT22;7666;50.920;4.628;2023-01-28T02:08:04;4.00;99.90
15131;DHT22;7666;50.920;4.628;2023-01-28T02:11:11;4.00;99.90
15131;DHT22;7666;50.920;4.628;2023-01-28T02:14:01;4.00;99.90
15131;DHT22;7666;50.920;4.628;2023-01-28T02:16:48;4.00;99.90
15131;DHT22;7666;50.920;4.628;2023-01-28T02:20:07;4.00;99.90
15131;DHT22;7666;50.920;4.628;2023-01-28T02:23:21;4.00;99.90
15131;DHT22;7666;50.920;4.628;2023-01-28T02:27:08;3.90;99.90
15131;DHT22;7666;50.920;4.628;2023-01-28T02:29:55;4.00;99.90
15131;DHT22;7666;50.920;4.628;2023-01-28T02:32:56;4.00;99.90
15131;DHT22;7666;50.920;4.628;2023-01-28T02:35:54;4.00;99.90
15131;DHT22;7666;50.920;4.628;2023-01-28T02:38:47;4.00;99.90
15131;DHT22;7666;50.920;4.628;2023-01-28T02:41:48;4.00;99.90
15131;DHT22;7666;50.920;4.628;2023-01-28T02:44:34;3.90;99.90
15131;DHT22;7666;50.920;4.628;2023-01-28T02:47:21;3.90;99.90
15131;DHT22;7666;50.920;4.628;2023-01-28T02:50:33;3.90;99.90
15131;DHT22;7666;50.920;4.628;2023-01-28T02:53:39;3.90;99.90
15131;DHT22;7666;50.920;4.628;2023-01-28T02:56:47;3.90;99.90
15131;DHT22;7666;50.920;4.628;2023-01-28T02:59:48;3.90;99.90
15131;DHT22;7666;50.920;4.628;2023-01-28T03:05:46;3.90;99.90
15131;DHT22;7666;50.920;4.628;2023-01-28T03:09:01;3.90;99.90
15131;DHT22;7666;50.920;4.628;2023-01-28T03:12:08;3.90;99.90
15131;DHT22;7666;50.920;4.628;2023-01-28T03:15:14;3.80;99.90
15131;DHT22;7666;50.920;4.628;2023-01-28T03:18:29;3.80;99.90
15131;DHT22;7666;50.920;4.628;2023-01-28T03:21:41;3.80;99.90
15131;DHT22;7666;50.920;4.628;2023-01-28T03:24:49;3.80;99.90
15131;DHT22;7666;50.920;4.628;2023-01-28T03:27:59;3.80;99.90
15131;DHT22;7666;50.920;4.628;2023-01-28T03:31:13;3.70;99.90
15131;DHT22;7666;50.920;4.628;2023-01-28T03:34:20;3.70;99.90
15131;DHT22;7666;50.920;4.628;2023-01-28T03:37:25;3.70;99.90
15131;DHT22;7666;50.920;4.628;2023-01-28T03:40:13;3.70;99.90
15131;DHT22;7666;50.920;4.628;2023-01-28T03:42:59;3.70;99.90
15131;DHT22;7666;50.920;4.628;2023-01-28T03:45:45;3.70;99.90
15131;DHT22;7666;50.920;4.628;2023-01-28T03:48:35;3.70;99.90
15131;DHT22;7666;50.920;4.628;2023-01-28T03:51:21;3.60;99.90
15131;DHT22;7666;50.920;4.628;2023-01-28T03:54:07;3.60;99.90
15131;DHT22;7666;50.920;4.628;2023-01-28T03:56:54;3.60;99.90
15131;DHT22;7666;50.920;4.628;2023-01-28T03:59:40;3.60;99.90
15131;DHT22;7666;50.920;4.628;2023-01-28T04:02:26;3.60;99.90
15131;DHT22;7666;50.920;4.628;2023-01-28T04:05:12;3.60;99.90
15131;DHT22;7666;50.920;4.628;2023-01-28T04:08:00;3.60;99.90
15131;DHT22;7666;50.920;4.628;2023-01-28T04:10:46;3.60;99.90
15131;DHT22;7666;50.920;4.628;2023-01-28T04:13:32;3.60;99.90
15131;DHT22;7666;50.920;4.628;2023-01-28T04:16:18;3.70;99.90
15131;DHT22;7666;50.920;4.628;2023-01-28T04:19:05;3.70;99.90
15131;DHT22;7666;50.920;4.628;2023-01-28T04:21:51;3.70;99.90
15131;DHT22;7666;50.920;4.628;2023-01-28T04:24:40;3.70;99.90
15131;DHT22;7666;50.920;4.628;2023-01-28T04:27:26;3.70;99.90
15131;DHT22;7666;50.920;4.628;2023-01-28T04:30:12;3.70;99.90
15131;DHT22;7666;50.920;4.628;2023-01-28T04:32:58;3.70;99.90
15131;DHT22;7666;50.920;4.628;2023-01-28T04:35:44;3.60;99.90
15131;DHT22;7666;50.920;4.628;2023-01-28T04:38:30;3.60;99.90
15131;DHT22;7666;50.920;4.628;2023-01-28T04:41:16;3.60;99.90
15131;DHT22;7666;50.920;4.628;2023-01-28T04:44:02;3.60;99.90
15131;DHT22;7666;50.920;4.628;2023-01-28T04:46:48;3.60;99.90
15131;DHT22;7666;50.920;4.628;2023-01-28T04:49:34;3.60;99.90
15131;DHT22;7666;50.920;4.628;2023-01-28T04:52:20;3.60;99.90
15131;DHT22;7666;50.920;4.628;2023-01-28T04:55:07;3.60;99.90
15131;DHT22;7666;50.920;4.628;2023-01-28T04:57:54;3.60;99.90
15131;DHT22;7666;50.920;4.628;2023-01-28T05:00:40;3.50;99.90
15131;DHT22;7666;50.920;4.628;2023-01-28T05:03:26;3.50;99.90
15131;DHT22;7666;50.920;4.628;2023-01-28T05:06:12;3.50;99.90
15131;DHT22;7666;50.920;4.628;2023-01-28T05:08:58;3.50;99.90
15131;DHT22;7666;50.920;4.628;2023-01-28T05:11:44;3.40;99.90
15131;DHT22;7666;50.920;4.628;2023-01-28T05:14:30;3.40;99.90
15131;DHT22;7666;50.920;4.628;2023-01-28T05:17:15;3.40;99.90
15131;DHT22;7666;50.920;4.628;2023-01-28T05:20:02;3.40;99.90
15131;DHT22;7666;50.920;4.628;2023-01-28T05:22:49;3.40;99.90
15131;DHT22;7666;50.920;4.628;2023-01-28T05:25:35;3.40;99.90
15131;DHT22;7666;50.920;4.628;2023-01-28T05:28:21;3.40;99.90
15131;DHT22;7666;50.920;4.628;2023-01-28T05:31:08;3.40;99.90
15131;DHT22;7666;50.920;4.628;2023-01-28T05:33:54;3.40;99.90
15131;DHT22;7666;50.920;4.628;2023-01-28T05:36:40;3.40;99.90
15131;DHT22;7666;50.920;4.628;2023-01-28T05:39:26;3.40;99.90
15131;DHT22;7666;50.920;4.628;2023-01-28T05:42:12;3.30;99.90
15131;DHT22;7666;50.920;4.628;2023-01-28T05:45:00;3.30;99.90
15131;DHT22;7666;50.920;4.628;2023-01-28T05:47:46;3.30;99.90
15131;DHT22;7666;50.920;4.628;2023-01-28T05:50:32;3.40;99.90
15131;DHT22;7666;50.920;4.628;2023-01-28T05:53:18;3.30;99.90
15131;DHT22;7666;50.920;4.628;2023-01-28T05:56:04;3.30;99.90
15131;DHT22;7666;50.920;4.628;2023-01-28T05:58:50;3.30;99.90
15131;DHT22;7666;50.920;4.628;2023-01-28T06:01:36;3.30;99.90
15131;DHT22;7666;50.920;4.628;2023-01-28T06:04:22;3.30;99.90
15131;DHT22;7666;50.920;4.628;2023-01-28T06:07:08;3.30;99.90
15131;DHT22;7666;50.920;4.628;2023-01-28T06:09:54;3.30;99.90
15131;DHT22;7666;50.920;4.628;2023-01-28T06:12:40;3.30;99.90
15131;DHT22;7666;50.920;4.628;2023-01-28T06:15:27;3.20;99.90
15131;DHT22;7666;50.920;4.628;2023-01-28T06:18:13;3.20;99.90
15131;DHT22;7666;50.920;4.628;2023-01-28T06:20:59;3.20;99.90
15131;DHT22;7666;50.920;4.628;2023-01-28T06:23:45;3.20;99.90
15131;DHT22;7666;50.920;4.628;2023-01-28T06:26:30;3.20;99.90
15131;DHT22;7666;50.920;4.628;2023-01-28T06:29:16;3.20;99.90
15131;DHT22;7666;50.920;4.628;2023-01-28T06:32:03;3.20;99.90
15131;DHT22;7666;50.920;4.628;2023-01-28T06:34:49;3.20;99.90
15131;DHT22;7666;50.920;4.628;2023-01-28T06:37:35;3.20;99.90
15131;DHT22;7666;50.920;4.628;2023-01-28T06:40:21;3.20;99.90
15131;DHT22;7666;50.920;4.628;2023-01-28T06:43:07;3.20;99.90
15131;DHT22;7666;50.920;4.628;2023-01-28T06:45:54;3.20;99.90
15131;DHT22;7666;50.920;4.628;2023-01-28T06:48:40;3.10;99.90
15131;DHT22;7666;50.920;4.628;2023-01-28T06:51:26;3.10;99.90
15131;DHT22;7666;50.920;4.628;2023-01-28T06:54:11;3.10;99.90
15131;DHT22;7666;50.920;4.628;2023-01-28T06:56:57;3.10;99.90
15131;DHT22;7666;50.920;4.628;2023-01-28T06:59:43;3.10;99.90
15131;DHT22;7666;50.920;4.628;2023-01-28T07:02:29;3.10;99.90
15131;DHT22;7666;50.920;4.628;2023-01-28T07:05:15;3.00;99.90
15131;DHT22;7666;50.920;4.628;2023-01-28T07:08:02;3.10;99.90
15131;DHT22;7666;50.920;4.628;2023-01-28T07:10:48;3.10;99.90
15131;DHT22;7666;50.920;4.628;2023-01-28T07:13:34;3.10;99.90
15131;DHT22;7666;50.920;4.628;2023-01-28T07:16:20;3.10;99.90
15131;DHT22;7666;50.920;4.628;2023-01-28T07:19:06;3.20;99.90
15131;DHT22;7666;50.920;4.628;2023-01-28T07:21:52;3.20;99.90
15131;DHT22;7666;50.920;4.628;2023-01-28T07:24:42;3.20;99.90
15131;DHT22;7666;50.920;4.628;2023-01-28T07:27:28;3.10;99.90
15131;DHT22;7666;50.920;4.628;2023-01-28T07:30:16;3.10;99.90
15131;DHT22;7666;50.920;4.628;2023-01-28T07:33:02;3.10;99.90
15131;DHT22;7666;50.920;4.628;2023-01-28T07:35:48;3.10;99.90
15131;DHT22;7666;50.920;4.628;2023-01-28T07:38:34;3.10;99.90
15131;DHT22;7666;50.920;4.628;2023-01-28T07:41:20;3.10;99.90
15131;DHT22;7666;50.920;4.628;2023-01-28T07:44:06;3.10;99.90
15131;DHT22;7666;50.920;4.628;2023-01-28T07:46:52;3.10;99.90
15131;DHT22;7666;50.920;4.628;2023-01-28T07:49:39;3.00;99.90
15131;DHT22;7666;50.920;4.628;2023-01-28T07:52:25;3.00;99.90
15131;DHT22;7666;50.920;4.628;2023-01-28T07:55:11;3.00;99.90
15131;DHT22;7666;50.920;4.628;2023-01-28T07:58:00;3.00;99.90
15131;DHT22;7666;50.920;4.628;2023-01-28T08:00:46;3.00;99.90
15131;DHT22;7666;50.920;4.628;2023-01-28T08:03:32;3.00;99.90
15131;DHT22;7666;50.920;4.628;2023-01-28T08:06:19;3.00;99.90
15131;DHT22;7666;50.920;4.628;2023-01-28T08:09:05;2.90;99.90
15131;DHT22;7666;50.920;4.628;2023-01-28T08:11:52;2.90;99.90
15131;DHT22;7666;50.920;4.628;2023-01-28T08:14:39;2.90;99.90
15131;DHT22;7666;50.920;4.628;2023-01-28T08:17:25;2.90;99.90
15131;DHT22;7666;50.920;4.628;2023-01-28T08:20:11;2.90;99.90
15131;DHT22;7666;50.920;4.628;2023-01-28T08:25:52;2.90;99.90
15131;DHT22;7666;50.920;4.628;2023-01-28T08:28:38;2.90;99.90
15131;DHT22;7666;50.920;4.628;2023-01-28T08:31:24;2.90;99.90
15131;DHT22;7666;50.920;4.628;2023-01-28T08:34:11;2.90;99.90
15131;DHT22;7666;50.920;4.628;2023-01-28T08:36:57;2.90;99.90
15131;DHT22;7666;50.920;4.628;2023-01-28T08:39:42;2.90;99.90
15131;DHT22;7666;50.920;4.628;2023-01-28T08:42:29;2.90;99.90
15131;DHT22;7666;50.920;4.628;2023-01-28T08:45:15;2.90;99.90
15131;DHT22;7666;50.920;4.628;2023-01-28T08:48:04;2.90;99.90
15131;DHT22;7666;50.920;4.628;2023-01-28T08:50:50;2.90;99.90
15131;DHT22;7666;50.920;4.628;2023-01-28T08:53:36;2.90;99.90
15131;DHT22;7666;50.920;4.628;2023-01-28T08:56:22;2.90;99.90
15131;DHT22;7666;50.920;4.628;2023-01-28T08:59:08;3.00;99.90
15131;DHT22;7666;50.920;4.628;2023-01-28T09:01:54;3.00;99.90
15131;DHT22;7666;50.920;4.628;2023-01-28T09:04:40;3.00;99.90
15131;DHT22;7666;50.920;4.628;2023-01-28T09:07:26;2.90;99.90
15131;DHT22;7666;50.920;4.628;2023-01-28T09:10:12;2.90;99.90
15131;DHT22;7666;50.920;4.628;2023-01-28T09:13:07;2.90;99.90
15131;DHT22;7666;50.920;4.628;2023-01-28T09:15:54;2.90;99.90
15131;DHT22;7666;50.920;4.628;2023-01-28T09:18:40;2.90;99.90
15131;DHT22;7666;50.920;4.628;2023-01-28T09:21:26;3.00;99.90
15131;DHT22;7666;50.920;4.628;2023-01-28T09:24:12;3.00;99.90
15131;DHT22;7666;50.920;4.628;2023-01-28T09:26:58;3.00;99.90
15131;DHT22;7666;50.920;4.628;2023-01-28T09:29:44;3.00;99.90
15131;DHT22;7666;50.920;4.628;2023-01-28T09:32:30;3.00;99.90
15131;DHT22;7666;50.920;4.628;2023-01-28T09:35:16;3.00;99.90
15131;DHT22;7666;50.920;4.628;2023-01-28T09:38:02;3.00;99.90
15131;DHT22;7666;50.920;4.628;2023-01-28T09:40:49;3.10;99.90
15131;DHT22;7666;50.920;4.628;2023-01-28T09:43:59;3.10;99.90
15131;DHT22;7666;50.920;4.628;2023-01-28T09:46:48;3.00;99.90
15131;DHT22;7666;50.920;4.628;2023-01-28T09:49:42;3.10;99.90
15131;DHT22;7666;50.920;4.628;2023-01-28T09:52:35;3.10;99.90
15131;DHT22;7666;50.920;4.628;2023-01-28T09:58:15;3.20;99.90
15131;DHT22;7666;50.920;4.628;2023-01-28T10:01:40;3.20;99.90
15131;DHT22;7666;50.920;4.628;2023-01-28T10:04:56;3.30;99.90
15131;DHT22;7666;50.920;4.628;2023-01-28T10:15:15;3.30;99.90
15131;DHT22;7666;50.920;4.628;2023-01-28T10:17:49;3.20;99.90
15131;DHT22;7666;50.920;4.628;2023-01-28T10:23:40;3.20;99.90
15131;DHT22;7666;50.920;4.628;2023-01-28T10:26:33;3.20;99.90
15131;DHT22;7666;50.920;4.628;2023-01-28T10:29:26;3.20;99.90
15131;DHT22;7666;50.920;4.628;2023-01-28T10:32:32;3.20;99.90
15131;DHT22;7666;50.920;4.628;2023-01-28T10:35:22;3.20;99.90
15131;DHT22;7666;50.920;4.628;2023-01-28T10:38:13;3.20;99.90
15131;DHT22;7666;50.920;4.628;2023-01-28T10:41:02;3.30;99.90
15131;DHT22;7666;50.920;4.628;2023-01-28T10:43:49;3.30;99.90
15131;DHT22;7666;50.920;4.628;2023-01-28T10:46:35;3.20;99.90
15131;DHT22;7666;50.920;4.628;2023-01-28T10:49:26;3.30;99.90
15131;DHT22;7666;50.920;4.628;2023-01-28T10:52:14;3.40;99.90
15131;DHT22;7666;50.920;4.628;2023-01-28T10:55:02;3.40;99.90
15131;DHT22;7666;50.920;4.628;2023-01-28T10:57:48;3.40;99.90
15131;DHT22;7666;50.920;4.628;2023-01-28T11:00:36;3.30;99.90
15131;DHT22;7666;50.920;4.628;2023-01-28T11:03:23;3.30;99.90
15131;DHT22;7666;50.920;4.628;2023-01-28T11:06:26;3.30;99.90
15131;DHT22;7666;50.920;4.628;2023-01-28T11:09:24;3.30;99.90
15131;DHT22;7666;50.920;4.628;2023-01-28T11:12:28;3.30;99.90
15131;DHT22;7666;50.920;4.628;2023-01-28T11:15:16;3.30;99.90
15131;DHT22;7666;50.920;4.628;2023-01-28T11:18:22;3.30;99.90
15131;DHT22;7666;50.920;4.628;2023-01-28T11:21:30;3.40;99.90
15131;DHT22;7666;50.920;4.628;2023-01-28T11:24:21;3.50;99.90
15131;DHT22;7666;50.920;4.628;2023-01-28T11:27:14;3.50;99.90
15131;DHT22;7666;50.920;4.628;2023-01-28T11:30:02;3.40;99.90
15131;DHT22;7666;50.920;4.628;2023-01-28T11:36:04;3.30;99.90
15131;DHT22;7666;50.920;4.628;2023-01-28T11:38:56;3.40;99.90
15131;DHT22;7666;50.920;4.628;2023-01-28T11:41:43;3.40;99.90
15131;DHT22;7666;50.920;4.628;2023-01-28T11:44:29;3.40;99.90
15131;DHT22;7666;50.920;4.628;2023-01-28T11:54:26;3.40;99.90
15131;DHT22;7666;50.920;4.628;2023-01-28T11:57:22;3.40;99.90
15131;DHT22;7666;50.920;4.628;2023-01-28T12:06:22;3.50;99.90
15131;DHT22;7666;50.920;4.628;2023-01-28T12:12:48;3.40;99.90
15131;DHT22;7666;50.920;4.628;2023-01-28T12:28:56;3.50;99.90
15131;DHT22;7666;50.920;4.628;2023-01-28T12:38:30;3.80;99.90
15131;DHT22;7666;50.920;4.628;2023-01-28T12:41:25;3.70;99.90
15131;DHT22;7666;50.920;4.628;2023-01-28T12:44:09;3.80;99.90
15131;DHT22;7666;50.920;4.628;2023-01-28T12:47:01;4.00;99.90
15131;DHT22;7666;50.920;4.628;2023-01-28T12:50:16;4.30;99.90
15131;DHT22;7666;50.920;4.628;2023-01-28T12:56:44;4.80;99.90
15131;DHT22;7666;50.920;4.628;2023-01-28T12:59:38;5.00;99.90
15131;DHT22;7666;50.920;4.628;2023-01-28T13:02:40;4.90;99.90
15131;DHT22;7666;50.920;4.628;2023-01-28T13:05:35;4.90;99.90
15131;DHT22;7666;50.920;4.628;2023-01-28T13:08:27;4.80;99.90
15131;DHT22;7666;50.920;4.628;2023-01-28T13:11:15;4.90;99.90
15131;DHT22;7666;50.920;4.628;2023-01-28T13:14:03;4.90;99.90
15131;DHT22;7666;50.920;4.628;2023-01-28T13:16:50;4.70;99.90
15131;DHT22;7666;50.920;4.628;2023-01-28T13:19:40;4.50;99.90
15131;DHT22;7666;50.920;4.628;2023-01-28T13:22:34;4.40;99.90
15131;DHT22;7666;50.920;4.628;2023-01-28T13:25:23;4.10;99.90
15131;DHT22;7666;50.920;4.628;2023-01-28T13:28:33;4.30;99.90
15131;DHT22;7666;50.920;4.628;2023-01-28T13:31:21;4.60;99.90
15131;DHT22;7666;50.920;4.628;2023-01-28T13:34:24;4.70;99.90
15131;DHT22;7666;50.920;4.628;2023-01-28T13:37:32;4.80;99.90
15131;DHT22;7666;50.920;4.628;2023-01-28T13:40:25;5.10;99.90
15131;DHT22;7666;50.920;4.628;2023-01-28T13:43:25;5.10;99.90
15131;DHT22;7666;50.920;4.628;2023-01-28T13:46:25;5.30;99.90
15131;DHT22;7666;50.920;4.628;2023-01-28T13:49:16;5.50;99.90
15131;DHT22;7666;50.920;4.628;2023-01-28T13:52:14;5.40;99.90
15131;DHT22;7666;50.920;4.628;2023-01-28T14:19:28;5.10;99.90
15131;DHT22;7666;50.920;4.628;2023-01-28T14:22:18;4.90;99.90
15131;DHT22;7666;50.920;4.628;2023-01-28T14:25:11;4.60;99.90
15131;DHT22;7666;50.920;4.628;2023-01-28T14:28:00;4.40;99.90
15131;DHT22;7666;50.920;4.628;2023-01-28T14:30:56;4.40;99.90
15131;DHT22;7666;50.920;4.628;2023-01-28T14:33:46;4.30;99.90
15131;DHT22;7666;50.920;4.628;2023-01-28T14:36:36;4.30;99.90
15131;DHT22;7666;50.920;4.628;2023-01-28T14:39:28;4.30;99.90
15131;DHT22;7666;50.920;4.628;2023-01-28T14:42:22;4.40;99.90
15131;DHT22;7666;50.920;4.628;2023-01-28T14:48:23;4.50;99.90
15131;DHT22;7666;50.920;4.628;2023-01-28T14:57:54;4.70;99.90
15131;DHT22;7666;50.920;4.628;2023-01-28T15:00:55;4.70;99.90
15131;DHT22;7666;50.920;4.628;2023-01-28T15:03:44;4.70;99.90
15131;DHT22;7666;50.920;4.628;2023-01-28T15:06:34;4.80;99.90
15131;DHT22;7666;50.920;4.628;2023-01-28T15:09:21;4.70;99.90
15131;DHT22;7666;50.920;4.628;2023-01-28T15:12:08;4.80;99.90
15131;DHT22;7666;50.920;4.628;2023-01-28T15:14:54;4.70;99.90
15131;DHT22;7666;50.920;4.628;2023-01-28T15:17:40;4.60;99.90
15131;DHT22;7666;50.920;4.628;2023-01-28T15:20:26;4.40;99.90
15131;DHT22;7666;50.920;4.628;2023-01-28T15:23:15;4.20;99.90
15131;DHT22;7666;50.920;4.628;2023-01-28T15:26:06;4.10;99.90
15131;DHT22;7666;50.920;4.628;2023-01-28T15:28:55;4.00;99.90
15131;DHT22;7666;50.920;4.628;2023-01-28T15:31:46;4.00;99.90
15131;DHT22;7666;50.920;4.628;2023-01-28T15:34:32;4.00;99.90
15131;DHT22;7666;50.920;4.628;2023-01-28T15:37:18;4.10;99.90
15131;DHT22;7666;50.920;4.628;2023-01-28T15:40:05;4.10;99.90
15131;DHT22;7666;50.920;4.628;2023-01-28T15:42:53;4.00;99.90
15131;DHT22;7666;50.920;4.628;2023-01-28T15:45:44;4.00;99.90
15131;DHT22;7666;50.920;4.628;2023-01-28T15:48:33;4.00;99.90
15131;DHT22;7666;50.920;4.628;2023-01-28T15:51:28;4.00;99.90
15131;DHT22;7666;50.920;4.628;2023-01-28T15:54:16;4.00;99.90
15131;DHT22;7666;50.920;4.628;2023-01-28T15:57:14;3.90;99.90
15131;DHT22;7666;50.920;4.628;2023-01-28T16:02:53;3.80;99.90
15131;DHT22;7666;50.920;4.628;2023-01-28T16:05:59;3.80;99.90
15131;DHT22;7666;50.920;4.628;2023-01-28T16:08:57;3.90;99.90
15131;DHT22;7666;50.920;4.628;2023-01-28T16:11:44;3.80;99.90
15131;DHT22;7666;50.920;4.628;2023-01-28T16:17:40;3.50;99.90
15131;DHT22;7666;50.920;4.628;2023-01-28T16:20:28;3.30;99.90
15131;DHT22;7666;50.920;4.628;2023-01-28T16:23:21;3.20;99.90
15131;DHT22;7666;50.920;4.628;2023-01-28T16:26:22;3.20;99.90
15131;DHT22;7666;50.920;4.628;2023-01-28T16:29:15;3.20;99.90
15131;DHT22;7666;50.920;4.628;2023-01-28T16:32:02;3.20;99.90
15131;DHT22;7666;50.920;4.628;2023-01-28T16:34:48;3.20;99.90
15131;DHT22;7666;50.920;4.628;2023-01-28T16:37:34;3.20;99.90
15131;DHT22;7666;50.920;4.628;2023-01-28T16:40:23;3.20;99.90
15131;DHT22;7666;50.920;4.628;2023-01-28T16:43:11;3.20;99.90
15131;DHT22;7666;50.920;4.628;2023-01-28T16:45:57;3.20;99.90
15131;DHT22;7666;50.920;4.628;2023-01-28T16:48:44;3.20;99.90
15131;DHT22;7666;50.920;4.628;2023-01-28T16:51:30;3.20;99.90
15131;DHT22;7666;50.920;4.628;2023-01-28T16:54:16;3.30;99.90
15131;DHT22;7666;50.920;4.628;2023-01-28T16:57:02;3.30;99.90
15131;DHT22;7666;50.920;4.628;2023-01-28T16:59:48;3.30;99.90
15131;DHT22;7666;50.920;4.628;2023-01-28T17:02:34;3.40;99.90
15131;DHT22;7666;50.920;4.628;2023-01-28T17:05:21;3.40;99.90
15131;DHT22;7666;50.920;4.628;2023-01-28T17:08:08;3.40;99.90
15131;DHT22;7666;50.920;4.628;2023-01-28T17:10:55;3.40;99.90
15131;DHT22;7666;50.920;4.628;2023-01-28T17:13:41;3.30;99.90
15131;DHT22;7666;50.920;4.628;2023-01-28T17:16:27;3.30;99.90
15131;DHT22;7666;50.920;4.628;2023-01-28T17:19:15;3.20;99.90
15131;DHT22;7666;50.920;4.628;2023-01-28T17:22:01;3.20;99.90
15131;DHT22;7666;50.920;4.628;2023-01-28T17:24:47;3.20;99.90
15131;DHT22;7666;50.920;4.628;2023-01-28T17:27:33;3.20;99.90
15131;DHT22;7666;50.920;4.628;2023-01-28T17:30:19;3.20;99.90
15131;DHT22;7666;50.920;4.628;2023-01-28T17:33:06;3.10;99.90
15131;DHT22;7666;50.920;4.628;2023-01-28T17:35:53;3.00;99.90
15131;DHT22;7666;50.920;4.628;2023-01-28T17:38:43;3.00;99.90
15131;DHT22;7666;50.920;4.628;2023-01-28T17:41:29;2.90;99.90
15131;DHT22;7666;50.920;4.628;2023-01-28T17:44:16;2.90;99.90
15131;DHT22;7666;50.920;4.628;2023-01-28T17:47:02;2.80;99.90
15131;DHT22;7666;50.920;4.628;2023-01-28T17:49:48;2.70;99.90
15131;DHT22;7666;50.920;4.628;2023-01-28T17:52:34;2.60;99.90
15131;DHT22;7666;50.920;4.628;2023-01-28T17:55:22;2.50;99.90
15131;DHT22;7666;50.920;4.628;2023-01-28T17:58:08;2.40;99.90
15131;DHT22;7666;50.920;4.628;2023-01-28T18:00:54;2.40;99.90
15131;DHT22;7666;50.920;4.628;2023-01-28T18:03:40;2.30;99.90
15131;DHT22;7666;50.920;4.628;2023-01-28T18:06:30;2.20;99.90
15131;DHT22;7666;50.920;4.628;2023-01-28T18:09:17;2.10;99.90
15131;DHT22;7666;50.920;4.628;2023-01-28T18:12:03;2.10;99.90
15131;DHT22;7666;50.920;4.628;2023-01-28T18:14:50;2.00;99.90
15131;DHT22;7666;50.920;4.628;2023-01-28T18:17:36;2.00;99.90
15131;DHT22;7666;50.920;4.628;2023-01-28T18:20:22;2.00;99.90
15131;DHT22;7666;50.920;4.628;2023-01-28T18:23:08;1.90;99.90
15131;DHT22;7666;50.920;4.628;2023-01-28T18:25:58;1.90;99.90
15131;DHT22;7666;50.920;4.628;2023-01-28T18:28:44;1.80;99.90
15131;DHT22;7666;50.920;4.628;2023-01-28T18:31:31;1.80;99.90
15131;DHT22;7666;50.920;4.628;2023-01-28T18:34:17;1.70;99.90
15131;DHT22;7666;50.920;4.628;2023-01-28T18:37:03;1.60;99.90
15131;DHT22;7666;50.920;4.628;2023-01-28T18:39:51;1.60;99.90
15131;DHT22;7666;50.920;4.628;2023-01-28T18:42:37;1.50;99.90
15131;DHT22;7666;50.920;4.628;2023-01-28T18:45:23;1.50;99.90
15131;DHT22;7666;50.920;4.628;2023-01-28T18:48:09;1.40;99.90
15131;DHT22;7666;50.920;4.628;2023-01-28T18:50:56;1.30;99.90
15131;DHT22;7666;50.920;4.628;2023-01-28T18:53:43;1.30;99.90
15131;DHT22;7666;50.920;4.628;2023-01-28T18:56:29;1.40;99.90
15131;DHT22;7666;50.920;4.628;2023-01-28T18:59:16;1.30;99.90
15131;DHT22;7666;50.920;4.628;2023-01-28T19:02:02;1.30;99.90
15131;DHT22;7666;50.920;4.628;2023-01-28T19:04:48;1.20;99.90
15131;DHT22;7666;50.920;4.628;2023-01-28T19:07:34;1.20;99.90
15131;DHT22;7666;50.920;4.628;2023-01-28T19:10:20;1.10;99.90
15131;DHT22;7666;50.920;4.628;2023-01-28T19:13:08;1.10;99.90
15131;DHT22;7666;50.920;4.628;2023-01-28T19:15:55;1.10;99.90
15131;DHT22;7666;50.920;4.628;2023-01-28T19:18:41;1.10;99.90
15131;DHT22;7666;50.920;4.628;2023-01-28T19:21:28;1.00;99.90
15131;DHT22;7666;50.920;4.628;2023-01-28T19:24:15;0.80;99.90
15131;DHT22;7666;50.920;4.628;2023-01-28T19:27:01;0.60;99.90
15131;DHT22;7666;50.920;4.628;2023-01-28T19:29:47;0.50;99.90
15131;DHT22;7666;50.920;4.628;2023-01-28T19:32:33;0.50;99.90
15131;DHT22;7666;50.920;4.628;2023-01-28T19:35:20;0.50;99.90
15131;DHT22;7666;50.920;4.628;2023-01-28T19:38:06;0.50;99.90
15131;DHT22;7666;50.920;4.628;2023-01-28T19:40:52;0.50;99.90
15131;DHT22;7666;50.920;4.628;2023-01-28T19:43:38;0.50;99.90
15131;DHT22;7666;50.920;4.628;2023-01-28T19:46:24;0.50;99.90
15131;DHT22;7666;50.920;4.628;2023-01-28T19:49:11;0.50;99.90
15131;DHT22;7666;50.920;4.628;2023-01-28T19:51:58;0.60;99.90
15131;DHT22;7666;50.920;4.628;2023-01-28T19:54:46;0.50;99.90
15131;DHT22;7666;50.920;4.628;2023-01-28T19:57:32;0.60;99.90
15131;DHT22;7666;50.920;4.628;2023-01-28T20:00:18;0.60;99.90
15131;DHT22;7666;50.920;4.628;2023-01-28T20:03:05;0.60;99.90
15131;DHT22;7666;50.920;4.628;2023-01-28T20:05:58;0.50;99.90
15131;DHT22;7666;50.920;4.628;2023-01-28T20:08:44;0.50;99.90
15131;DHT22;7666;50.920;4.628;2023-01-28T20:11:35;0.50;99.90